KLCK/LCK METAR and TAF weather

Enter ICAO airport designator
Station Type Date Time Source
KLCK METAR 2021/07/30 22:55 UTC NOAA

KLCK 302255Z AUTO 34007KT 10SM CLR 26/14 A3003 RMK AO2 T02590140


Station Type Date Time Source
KLCK Decoded METAR 2021/07/30 22:55 UTC NOAA

Rickenbacker Air National Guard Base, OH, United States (KLCK) 39-49N 082-56W
Jul 30, 2021 - 06:55 PM EDT / 2021.07.30 2255 UTC
Wind: from the NNW (340 degrees) at 8 MPH (7 KT):0
Visibility: 10 mile(s):0
Sky conditions: clear
Temperature: 78.6 F (25.9 C)
Dew Point: 57.2 F (14.0 C)
Relative Humidity: 47%
Pressure (altimeter): 30.03 in. Hg (1016 hPa)
ob: KLCK 302255Z AUTO 34007KT 10SM CLR 26/14 A3003 RMK AO2 T02590140
cycle: 23

Station Type Date Time Source
KLCK TAF 2021/07/30 18:27 UTC NOAA

TAF KLCK 301722Z 3018/3118 36009KT P6SM SCT045
FM310000 01003KT P6SM SCT250
FM311400 13005KT P6SM SCT120

Example: see airport list